createdAt,value
2019-04-04T00:01:49.955Z,11.50
2019-04-04T00:04:21.801Z,11.60
2019-04-04T00:06:48.998Z,11.40
2019-04-04T00:09:17.660Z,12.40
2019-04-04T00:11:46.356Z,12.23
2019-04-04T00:14:15.033Z,11.40
2019-04-04T00:16:43.671Z,13.13
2019-04-04T00:19:12.325Z,12.43
2019-04-04T00:21:40.952Z,13.20
2019-04-04T00:24:09.721Z,13.70
2019-04-04T00:26:41.745Z,13.40
2019-04-04T00:29:09.091Z,13.60
2019-04-04T00:31:37.755Z,14.47
2019-04-04T00:34:06.459Z,13.77
2019-04-04T00:36:35.127Z,15.03
2019-04-04T00:39:05.191Z,14.30
2019-04-04T00:41:33.827Z,14.30
2019-04-04T00:44:02.984Z,14.03
2019-04-04T00:46:34.856Z,14.40
2019-04-04T00:49:04.920Z,15.03
2019-04-04T00:51:34.227Z,14.87
2019-04-04T00:54:02.936Z,15.80
2019-04-04T00:56:31.591Z,15.30
2019-04-04T00:59:00.250Z,15.70
2019-04-04T01:01:28.924Z,17.50
2019-04-04T01:04:00.294Z,17.27
2019-04-04T01:06:28.282Z,15.37
2019-04-04T01:08:56.939Z,16.83
2019-04-04T01:11:25.604Z,17.73
2019-04-04T01:13:54.233Z,17.83
2019-04-04T01:16:22.873Z,17.40
2019-04-04T01:18:51.503Z,18.07
2019-04-04T01:21:22.292Z,17.73
2019-04-04T01:23:50.750Z,18.53
2019-04-04T01:26:19.728Z,18.47
2019-04-04T01:28:48.412Z,19.00
2019-04-04T01:31:17.076Z,17.77
2019-04-04T01:33:45.704Z,19.23
2019-04-04T01:36:14.378Z,20.00
2019-04-04T01:38:43.013Z,19.90
2019-04-04T01:41:11.665Z,19.67
2019-04-04T01:43:40.980Z,20.10
2019-04-04T01:46:09.996Z,20.50
2019-04-04T01:48:38.641Z,20.90
2019-04-04T01:51:07.936Z,19.97
2019-04-04T01:53:36.912Z,18.63
2019-04-04T01:56:06.724Z,20.00
2019-04-04T01:58:35.665Z,18.70
2019-04-04T02:01:04.477Z,18.80
2019-04-04T02:03:33.131Z,18.33
2019-04-04T02:06:01.794Z,17.67
2019-04-04T02:08:31.701Z,18.10
2019-04-04T02:11:00.760Z,17.67
2019-04-04T02:13:29.415Z,17.30
2019-04-04T02:15:58.152Z,17.27
2019-04-04T02:18:26.808Z,16.23
2019-04-04T02:20:57.687Z,17.50
2019-04-04T02:23:25.877Z,16.30
2019-04-04T02:25:54.647Z,16.00
2019-04-04T02:28:23.288Z,15.73
2019-04-04T02:30:52.194Z,16.13
2019-04-04T02:33:21.176Z,16.43
2019-04-04T02:35:49.838Z,17.33
2019-04-04T02:38:18.500Z,15.70
2019-04-04T02:40:47.144Z,16.17
2019-04-04T02:43:16.234Z,17.90
2019-04-04T02:45:44.861Z,17.47
2019-04-04T02:48:13.513Z,18.27
2019-04-04T02:50:42.153Z,19.50
2019-04-04T02:53:10.825Z,19.13
2019-04-04T02:55:39.466Z,21.43
2019-04-04T02:58:08.129Z,22.03
2019-04-04T03:00:36.767Z,22.17
2019-04-04T03:03:09.166Z,23.83
2019-04-04T03:05:36.237Z,23.77
2019-04-04T03:08:05.044Z,23.60
2019-04-04T03:10:33.810Z,23.07
2019-04-04T03:13:02.518Z,23.93
2019-04-04T03:15:31.201Z,23.57
2019-04-04T03:18:03.920Z,24.03
2019-04-04T03:20:30.607Z,22.77
2019-04-04T03:23:00.641Z,24.60
2019-04-04T03:25:30.078Z,23.10
2019-04-04T03:27:59.353Z,23.10
2019-04-04T03:30:28.216Z,23.27
2019-04-04T03:32:56.874Z,23.67
2019-04-04T03:35:28.089Z,23.40
2019-04-04T03:37:56.008Z,22.70
2019-04-04T03:40:25.780Z,23.10
2019-04-04T03:42:54.652Z,22.70
2019-04-04T03:45:26.009Z,23.87
2019-04-04T03:47:53.756Z,22.77
2019-04-04T03:50:22.423Z,22.43
2019-04-04T03:52:51.072Z,23.63
2019-04-04T03:55:19.807Z,23.70
2019-04-04T03:57:48.461Z,24.20
2019-04-04T04:00:29.145Z,22.73
2019-04-04T04:02:57.779Z,26.97
2019-04-04T04:05:27.372Z,24.73
2019-04-04T04:07:56.027Z,24.13
2019-04-04T04:10:24.851Z,25.17
2019-04-04T04:12:53.494Z,23.70
2019-04-04T04:15:22.298Z,24.30
2019-04-04T04:17:50.965Z,24.33
2019-04-04T04:20:19.692Z,23.90
2019-04-04T04:22:50.803Z,25.40
2019-04-04T04:25:18.727Z,24.77
2019-04-04T04:27:48.340Z,24.30
2019-04-04T04:30:17.780Z,26.23
2019-04-04T04:32:46.426Z,25.83
2019-04-04T04:35:15.078Z,24.90
2019-04-04T04:37:43.736Z,24.37
2019-04-04T04:40:15.099Z,26.77
2019-04-04T04:42:42.857Z,26.30
2019-04-04T04:45:12.515Z,26.13
2019-04-04T04:47:41.368Z,26.17
2019-04-04T04:50:10.168Z,26.40
2019-04-04T04:52:38.968Z,26.40
2019-04-04T04:55:07.613Z,27.40
2019-04-04T04:57:37.013Z,26.00
2019-04-04T05:00:06.825Z,27.20
2019-04-04T05:02:35.474Z,27.73
2019-04-04T05:05:04.313Z,26.70
2019-04-04T05:07:34.635Z,26.57
2019-04-04T05:10:03.497Z,27.50
2019-04-04T05:12:32.444Z,26.47
2019-04-04T05:15:02.028Z,28.60
2019-04-04T05:17:30.889Z,27.33
2019-04-04T05:19:59.541Z,28.00
2019-04-04T05:22:28.183Z,29.03
2019-04-04T05:25:07.925Z,28.70
2019-04-04T05:27:27.330Z,29.33
2019-04-04T05:29:55.991Z,28.70
2019-04-04T05:32:24.660Z,26.83
2019-04-04T05:34:53.316Z,27.37
2019-04-04T05:37:22.012Z,26.27
2019-04-04T05:39:51.435Z,28.47
2019-04-04T05:42:20.817Z,29.10
2019-04-04T05:44:49.483Z,27.53
2019-04-04T05:47:18.138Z,24.23
2019-04-04T05:49:46.777Z,26.73
2019-04-04T05:52:15.724Z,25.60
2019-04-04T05:54:44.394Z,27.53
2019-04-04T05:57:13.049Z,24.60
2019-04-04T05:59:42.409Z,25.07
2019-04-04T06:02:12.053Z,24.17
2019-04-04T06:04:40.751Z,24.53
2019-04-04T06:07:09.458Z,23.33
2019-04-04T06:09:38.120Z,23.27
2019-04-04T06:12:06.763Z,22.37
2019-04-04T06:14:35.396Z,19.77
2019-04-04T06:17:05.099Z,20.50
2019-04-04T06:19:34.594Z,20.97
2019-04-04T06:22:03.258Z,21.20
2019-04-04T06:24:31.900Z,21.90
2019-04-04T06:27:00.872Z,21.70
2019-04-04T06:29:29.521Z,20.97
2019-04-04T06:32:00.490Z,22.20
2019-04-04T06:34:28.573Z,22.23
2019-04-04T06:36:57.787Z,20.00
2019-04-04T06:39:26.445Z,20.53
2019-04-04T06:41:55.090Z,20.73
2019-04-04T06:44:23.770Z,21.60
2019-04-04T06:46:53.460Z,20.87
2019-04-04T06:49:23.007Z,21.40
2019-04-04T06:51:51.648Z,20.97
2019-04-04T06:54:20.317Z,20.67
2019-04-04T06:56:49.006Z,20.97
2019-04-04T06:59:17.676Z,21.63
2019-04-04T07:01:46.338Z,21.20
2019-04-04T07:04:17.124Z,20.90
2019-04-04T07:06:45.395Z,21.63
2019-04-04T07:09:14.086Z,19.87
2019-04-04T07:11:42.764Z,20.20
2019-04-04T07:14:11.465Z,20.50
2019-04-04T07:16:40.124Z,19.37
2019-04-04T07:19:09.213Z,19.67
2019-04-04T07:21:37.902Z,21.10
2019-04-04T07:24:06.558Z,21.10
2019-04-04T07:26:35.191Z,21.03
2019-04-04T07:29:03.934Z,21.63
2019-04-04T07:31:33.533Z,24.60
2019-04-04T07:34:03.011Z,22.90
2019-04-04T07:36:34.628Z,23.00
2019-04-04T07:39:04.569Z,22.43
2019-04-04T07:41:33.239Z,23.47
2019-04-04T07:44:01.904Z,24.60
2019-04-04T07:46:30.553Z,23.00
2019-04-04T07:48:59.222Z,22.93
2019-04-04T07:51:28.062Z,24.30
2019-04-04T07:53:58.310Z,23.60
2019-04-04T07:56:27.040Z,24.80
2019-04-04T07:58:56.168Z,24.40
2019-04-04T08:01:24.796Z,23.60
2019-04-04T08:03:53.482Z,22.93
2019-04-04T08:06:22.203Z,24.33
2019-04-04T08:08:50.888Z,23.57
2019-04-04T08:11:19.536Z,23.77
2019-04-04T08:13:48.235Z,25.10
2019-04-04T08:16:16.950Z,24.90
2019-04-04T08:18:45.616Z,24.27
2019-04-04T08:21:14.622Z,23.70
2019-04-04T08:23:43.284Z,24.27
2019-04-04T08:26:12.130Z,24.27
2019-04-04T08:28:40.940Z,25.03
2019-04-04T08:31:09.914Z,25.13
2019-04-04T08:33:40.081Z,23.60
2019-04-04T08:36:08.973Z,26.80
2019-04-04T08:38:37.816Z,25.60
2019-04-04T08:41:06.472Z,26.47
2019-04-04T08:43:35.380Z,25.70
2019-04-04T08:46:04.124Z,25.10
2019-04-04T08:48:32.756Z,24.37
2019-04-04T08:51:01.428Z,24.13
2019-04-04T08:53:39.755Z,24.83
2019-04-04T08:56:00.519Z,24.80
2019-04-04T08:58:29.190Z,25.07
2019-04-04T09:00:57.910Z,24.03
2019-04-04T09:03:26.535Z,25.03
2019-04-04T09:05:55.208Z,22.77
2019-04-04T09:08:24.118Z,22.63
2019-04-04T09:10:52.935Z,21.10
2019-04-04T09:13:21.567Z,21.90
2019-04-04T09:15:50.247Z,23.27
2019-04-04T09:18:18.952Z,21.23
2019-04-04T09:20:47.719Z,20.00
2019-04-04T09:23:16.392Z,21.20
2019-04-04T09:25:45.247Z,22.83
2019-04-04T09:28:14.029Z,21.80
2019-04-04T09:30:42.702Z,22.20
2019-04-04T09:33:11.429Z,21.63
2019-04-04T09:35:40.224Z,22.73
2019-04-04T09:38:08.912Z,22.17
2019-04-04T09:40:37.574Z,21.10
2019-04-04T09:43:06.251Z,20.43
2019-04-04T09:45:35.069Z,21.73
2019-04-04T09:48:03.745Z,20.57
2019-04-04T09:50:32.399Z,20.53
2019-04-04T09:53:01.421Z,21.47
2019-04-04T09:55:30.097Z,23.40
2019-04-04T09:57:58.738Z,20.80
2019-04-04T10:00:27.525Z,22.53
2019-04-04T10:02:56.280Z,20.07
2019-04-04T10:05:24.926Z,21.13
2019-04-04T10:07:53.611Z,19.97
2019-04-04T10:10:22.252Z,21.50
2019-04-04T10:12:50.975Z,15.00
2019-04-04T10:15:19.762Z,21.53
2019-04-04T10:17:49.522Z,20.40
2019-04-04T10:20:18.560Z,22.17
2019-04-04T10:22:47.203Z,22.40
2019-04-04T10:25:15.855Z,21.90
2019-04-04T10:27:44.545Z,22.13
2019-04-04T10:30:13.646Z,22.73
2019-04-04T10:32:42.365Z,23.00
2019-04-04T10:35:30.703Z,24.67
2019-04-04T10:38:11.999Z,22.23
2019-04-04T10:40:52.698Z,23.63
2019-04-04T10:43:34.041Z,24.40
2019-04-04T10:46:15.124Z,23.70
2019-04-04T10:48:55.602Z,22.33
2019-04-04T10:51:36.225Z,22.73
2019-04-04T10:54:17.347Z,23.80
2019-04-04T10:56:58.155Z,25.47
2019-04-04T10:59:38.856Z,23.70
2019-04-04T11:02:19.216Z,23.40
2019-04-04T11:04:59.933Z,24.47
2019-04-04T11:07:40.620Z,23.83
2019-04-04T11:10:21.213Z,24.97
2019-04-04T11:13:03.018Z,23.37
2019-04-04T11:15:43.444Z,22.80
2019-04-04T11:18:24.220Z,22.73
2019-04-04T11:21:05.012Z,23.37
2019-04-04T11:23:45.817Z,23.80
2019-04-04T11:26:26.547Z,24.03
2019-04-04T11:29:07.270Z,24.13
2019-04-04T11:31:48.136Z,23.53
2019-04-04T11:34:28.748Z,22.27
2019-04-04T11:37:09.467Z,22.40
2019-04-04T11:39:54.764Z,22.10
2019-04-04T11:45:14.530Z,22.50
2019-04-04T11:47:55.156Z,21.30
2019-04-04T11:50:35.727Z,22.67
2019-04-04T11:53:16.599Z,23.30
2019-04-04T11:55:57.854Z,23.17
2019-04-04T11:58:38.500Z,22.40
2019-04-04T12:01:19.508Z,22.43
2019-04-04T12:04:00.553Z,23.33
2019-04-04T12:06:41.045Z,21.57
2019-04-04T12:09:21.679Z,23.70
2019-04-04T12:12:02.368Z,22.90
2019-04-04T12:14:42.886Z,24.87
2019-04-04T12:17:23.594Z,23.67
2019-04-04T12:20:04.383Z,22.07
2019-04-04T12:22:45.225Z,22.10
2019-04-04T12:25:25.990Z,23.83
2019-04-04T12:28:06.497Z,22.60
2019-04-04T12:30:47.233Z,25.10
2019-04-04T12:33:27.915Z,25.77
2019-04-04T12:36:08.577Z,26.67
2019-04-04T12:38:49.493Z,26.43
2019-04-04T12:41:30.132Z,25.40
2019-04-04T12:44:10.852Z,26.00
2019-04-04T12:46:51.782Z,26.10
2019-04-04T12:49:32.439Z,25.67
2019-04-04T12:52:13.011Z,26.40
2019-04-04T12:54:53.721Z,26.20
2019-04-04T12:57:34.595Z,23.70
2019-04-04T13:00:15.275Z,26.60
2019-04-04T13:02:55.818Z,26.60
2019-04-04T13:05:36.329Z,27.20
2019-04-04T13:08:17.173Z,26.17
2019-04-04T13:10:57.891Z,25.37
2019-04-04T13:13:38.691Z,26.00
2019-04-04T13:16:19.379Z,27.07
2019-04-04T13:19:00.011Z,24.17
2019-04-04T13:21:40.860Z,27.27
2019-04-04T13:24:21.390Z,25.57
2019-04-04T13:27:02.110Z,26.87
2019-04-04T13:29:42.765Z,27.60
2019-04-04T13:32:23.705Z,25.40
2019-04-04T13:35:05.687Z,26.33
2019-04-04T13:37:46.982Z,25.90
2019-04-04T13:40:27.593Z,25.63
2019-04-04T13:43:08.307Z,24.17
2019-04-04T13:45:49.099Z,26.10
2019-04-04T13:48:29.724Z,25.40
2019-04-04T13:51:12.114Z,23.83
2019-04-04T13:53:53.016Z,23.80
2019-04-04T13:56:33.393Z,24.23
2019-04-04T13:59:14.114Z,24.60
2019-04-04T14:01:54.925Z,22.90
2019-04-04T14:04:38.994Z,23.30
2019-04-04T14:07:19.520Z,23.90
2019-04-04T14:10:00.359Z,22.50
2019-04-04T14:12:40.752Z,24.70
2019-04-04T14:15:21.608Z,22.73
2019-04-04T14:18:02.380Z,22.53
2019-04-04T14:20:42.704Z,21.70
2019-04-04T14:23:23.341Z,22.60
2019-04-04T14:26:03.864Z,24.77
2019-04-04T14:28:44.900Z,23.97
2019-04-04T14:31:25.642Z,23.33
2019-04-04T14:34:06.392Z,24.83
2019-04-04T14:36:47.169Z,23.90
2019-04-04T14:39:27.927Z,23.50
2019-04-04T14:42:08.692Z,23.90
2019-04-04T14:44:49.516Z,24.27
2019-04-04T14:47:32.974Z,22.60
2019-04-04T14:52:55.961Z,24.70
2019-04-04T14:55:36.850Z,22.37
2019-04-04T14:58:18.115Z,24.00
2019-04-04T15:00:58.616Z,23.37
2019-04-04T15:03:42.005Z,24.13
2019-04-04T15:06:21.727Z,24.20
2019-04-04T15:09:02.552Z,24.20
2019-04-04T15:11:43.658Z,24.43
2019-04-04T15:14:24.889Z,23.67
2019-04-04T15:17:05.362Z,23.67
2019-04-04T15:19:46.038Z,23.33
2019-04-04T15:22:26.786Z,23.87
2019-04-04T15:25:07.685Z,22.80
2019-04-04T15:27:48.343Z,22.90
2019-04-04T15:30:28.865Z,23.60
2019-04-04T15:35:51.684Z,25.07
2019-04-04T15:41:21.776Z,25.40
2019-04-04T15:44:13.475Z,25.00
2019-04-04T15:47:01.461Z,23.50
2019-04-04T15:49:49.394Z,23.07
2019-04-04T15:52:37.332Z,22.57
2019-04-04T15:55:25.262Z,22.30
2019-04-04T16:01:20.527Z,24.53
2019-04-04T16:04:08.457Z,24.67
2019-04-04T16:06:56.404Z,24.77
2019-04-04T16:09:44.342Z,24.37
2019-04-04T16:12:32.604Z,24.20
2019-04-04T16:15:20.537Z,24.13
2019-04-04T16:18:08.528Z,25.00
2019-04-04T16:20:56.469Z,23.70
2019-04-04T16:23:44.383Z,25.40
2019-04-04T16:26:32.349Z,25.30
2019-04-04T16:29:20.280Z,24.70
2019-04-04T16:32:08.297Z,24.23
2019-04-04T16:34:56.225Z,23.97
2019-04-04T16:37:44.174Z,26.37
2019-04-04T16:40:32.178Z,24.73
2019-04-04T16:43:20.328Z,25.07
2019-04-04T16:46:08.260Z,25.33
2019-04-04T16:48:56.191Z,25.73
2019-04-04T16:51:44.137Z,25.60
2019-04-04T16:54:32.044Z,25.57
2019-04-04T16:57:20.112Z,24.50
2019-04-04T17:00:08.605Z,25.87
2019-04-04T17:02:37.303Z,24.37
2019-04-04T17:05:06.447Z,24.73
2019-04-04T17:07:35.777Z,26.77
2019-04-04T17:10:05.842Z,25.47
2019-04-04T17:12:34.784Z,26.03
2019-04-04T17:15:03.777Z,25.33
2019-04-04T17:17:32.509Z,24.57
2019-04-04T17:20:01.234Z,25.30
2019-04-04T17:22:29.928Z,24.57
2019-04-04T17:24:58.611Z,25.77
2019-04-04T17:27:27.405Z,25.00
2019-04-04T17:29:56.060Z,25.80
2019-04-04T17:32:25.030Z,26.47
2019-04-04T17:34:53.794Z,25.90
2019-04-04T17:37:22.568Z,26.87
2019-04-04T17:39:51.347Z,27.20
2019-04-04T17:42:29.071Z,26.50
2019-04-04T17:44:50.515Z,26.80
2019-04-04T17:47:19.227Z,27.20
2019-04-04T17:49:47.961Z,28.07
2019-04-04T17:52:17.218Z,27.90
2019-04-04T17:54:46.229Z,29.50
2019-04-04T17:57:15.559Z,29.07
2019-04-04T17:59:44.959Z,28.87
2019-04-04T18:02:13.716Z,29.53
2019-04-04T18:04:48.290Z,28.97
2019-04-04T18:07:12.798Z,30.50
2019-04-04T18:09:41.643Z,31.00
2019-04-04T18:12:10.399Z,30.00
2019-04-04T18:14:39.096Z,31.03
2019-04-04T18:17:08.061Z,30.30
2019-04-04T18:19:36.688Z,31.50
2019-04-04T18:22:06.633Z,32.43
2019-04-04T18:24:35.406Z,32.23
2019-04-04T18:27:05.399Z,33.53
2019-04-04T18:29:34.046Z,33.90
2019-04-04T18:32:02.712Z,35.60
2019-04-04T18:34:31.430Z,34.90
2019-04-04T18:37:00.154Z,34.87
2019-04-04T18:39:28.912Z,34.17
2019-04-04T18:41:57.701Z,34.20
2019-04-04T18:44:26.557Z,35.33
2019-04-04T18:46:55.196Z,35.40
2019-04-04T18:49:23.879Z,35.80
2019-04-04T18:51:52.568Z,35.83
2019-04-04T18:54:21.252Z,35.57
2019-04-04T18:56:49.928Z,35.70
2019-04-04T18:59:18.759Z,35.20
2019-04-04T19:01:47.456Z,35.43
2019-04-04T19:04:16.153Z,35.13
2019-04-04T19:06:44.952Z,35.63
2019-04-04T19:09:15.404Z,37.57
2019-04-04T19:11:44.456Z,37.07
2019-04-04T19:14:13.228Z,34.03
2019-04-04T19:16:42.017Z,37.20
2019-04-04T19:19:10.685Z,37.30
2019-04-04T19:21:39.342Z,36.93
2019-04-04T19:24:08.290Z,34.90
2019-04-04T19:26:37.196Z,36.27
2019-04-04T19:29:06.076Z,36.80
2019-04-04T19:31:34.821Z,36.40
2019-04-04T19:34:03.544Z,38.20
2019-04-04T19:36:32.233Z,37.60
2019-04-04T19:39:00.980Z,37.80
2019-04-04T19:41:29.668Z,38.40
2019-04-04T19:43:58.325Z,39.57
2019-04-04T19:46:36.581Z,38.57
2019-04-04T19:48:57.418Z,39.50
2019-04-04T19:51:26.089Z,39.13
2019-04-04T19:53:54.816Z,40.80
2019-04-04T19:56:24.038Z,41.30
2019-04-04T19:58:52.993Z,40.73
2019-04-04T20:01:21.654Z,40.00
2019-04-04T20:03:50.663Z,41.13
2019-04-04T20:06:19.548Z,40.87
2019-04-04T20:08:52.065Z,41.67
2019-04-04T20:11:18.947Z,40.90
2019-04-04T20:13:47.623Z,39.03
2019-04-04T20:16:16.620Z,40.67
2019-04-04T20:18:45.249Z,39.43
2019-04-04T20:21:13.960Z,37.63
2019-04-04T20:23:42.648Z,40.10
2019-04-04T20:26:11.305Z,39.10
2019-04-04T20:28:40.292Z,38.77
2019-04-04T20:31:09.137Z,36.27
2019-04-04T20:33:37.769Z,38.40
2019-04-04T20:36:06.550Z,37.23
2019-04-04T20:38:35.241Z,38.10
2019-04-04T20:41:04.302Z,36.90
2019-04-04T20:43:42.759Z,38.23
2019-04-04T20:46:03.531Z,38.23
2019-04-04T20:48:32.696Z,35.57
2019-04-04T20:51:01.745Z,36.87
2019-04-04T20:53:30.371Z,36.37
2019-04-04T20:55:59.074Z,36.30
2019-04-04T20:58:27.741Z,37.33
2019-04-04T21:00:56.504Z,37.90
2019-04-04T21:03:25.192Z,37.40
2019-04-04T21:05:53.844Z,38.47
2019-04-04T21:08:22.549Z,38.50
2019-04-04T21:10:51.291Z,36.37
2019-04-04T21:13:19.993Z,38.37
2019-04-04T21:15:48.712Z,37.30
2019-04-04T21:18:17.759Z,39.77
2019-04-04T21:20:46.733Z,34.33
2019-04-04T21:23:15.746Z,39.00
2019-04-04T21:25:44.378Z,36.80
2019-04-04T21:28:13.036Z,37.33
2019-04-04T21:30:41.681Z,37.80
2019-04-04T21:33:10.350Z,40.43
2019-04-04T21:35:38.997Z,37.10
2019-04-04T21:38:07.669Z,37.60
2019-04-04T21:40:36.573Z,35.70
2019-04-04T21:43:05.318Z,37.50
2019-04-04T21:45:34.167Z,38.60
2019-04-04T21:48:03.097Z,37.60
2019-04-04T21:50:31.865Z,37.83
2019-04-04T21:53:00.528Z,38.63
2019-04-04T21:55:29.178Z,38.90
2019-04-04T21:57:57.896Z,41.07
2019-04-04T22:00:29.108Z,40.73
2019-04-04T22:02:57.824Z,38.03
2019-04-04T22:05:26.532Z,39.67
2019-04-04T22:07:55.198Z,42.37
2019-04-04T22:10:24.175Z,41.27
2019-04-04T22:12:52.865Z,40.23
2019-04-04T22:15:21.775Z,41.70
2019-04-04T22:17:50.445Z,40.97
2019-04-04T22:20:19.185Z,41.17
2019-04-04T22:22:48.252Z,41.67
2019-04-04T22:25:16.988Z,40.93
2019-04-04T22:27:45.723Z,40.87
2019-04-04T22:30:14.861Z,41.43
2019-04-04T22:32:43.528Z,41.40
2019-04-04T22:35:12.371Z,40.37
2019-04-04T22:37:41.030Z,40.63
2019-04-04T22:40:09.930Z,41.90
2019-04-04T22:42:38.576Z,41.20
2019-04-04T22:45:07.881Z,41.70
2019-04-04T22:47:36.519Z,41.10
2019-04-04T22:50:05.476Z,40.17
2019-04-04T22:52:34.147Z,39.97
2019-04-04T22:55:02.830Z,41.90
2019-04-04T22:57:31.468Z,41.27
2019-04-04T23:00:00.169Z,40.47
2019-04-04T23:02:28.859Z,40.60
2019-04-04T23:04:57.769Z,39.77
2019-04-04T23:07:26.423Z,40.83
2019-04-04T23:09:55.092Z,42.17
2019-04-04T23:12:23.740Z,40.60
2019-04-04T23:14:52.385Z,42.50
2019-04-04T23:17:21.099Z,41.80
2019-04-04T23:19:49.749Z,40.30
2019-04-04T23:22:18.568Z,41.00
2019-04-04T23:24:47.220Z,40.87
2019-04-04T23:27:15.876Z,39.70
2019-04-04T23:29:44.525Z,40.70
2019-04-04T23:32:13.166Z,41.23
2019-04-04T23:34:41.828Z,38.57
2019-04-04T23:37:10.466Z,40.40
2019-04-04T23:39:39.135Z,42.17
2019-04-04T23:42:07.763Z,39.60
2019-04-04T23:44:36.504Z,38.50
2019-04-04T23:47:05.162Z,38.47
2019-04-04T23:49:33.932Z,41.23
2019-04-04T23:52:02.607Z,40.90
2019-04-04T23:54:31.280Z,40.40
2019-04-04T23:56:59.943Z,39.00
2019-04-04T23:59:28.654Z,40.07
